Latest Coastal Weather Observations for Rowley Shoals

IDW60701

Issued at 3:12 am WST Monday 15 February 2016 (issued every 10 minutes, with the page automatically refreshed every 10 minutes)

About coastal observations | Map of coastal stations | Coastal observations for WA | Marine services | Other Formats
Station Details ID: 200713 Name: ROWLEY SHOALS Lat: -17.52 Lon: 118.95 Height: 0.0 m
Data from the previous 72 hours. | See also: Recent months at Rowley Shoals
Date/Time
WST
Temp

°C
Wind Pressure Rain
since 9am
mm
Weather Cloud Vis
km
Sea
Height
m
Swell
Dir
 
Speed
knots
Gust
knots
hPa Trend Height
m
Period
s
Dir
15/03:00am 28.2 NW 13 15 1007.8 - - - - - - - - -
15/02:30am 28.2 NW 11 12 1008.3 - - - - - - - - -
15/02:00am 28.2 NW 11 12 1008.2 - - - - - - - - -
15/01:30am 28.2 NW 9 10 1008.4 - - - - - - - - -
15/01:00am 28.1 NNW 10 11 1008.5 - - - - - - - - -
15/12:30am 28.1 NNW 7 8 1009.2 - - - - - - - - -
15/12:00am 28.2 NNW 7 7 1009.3 - - - - - - - - -
 
Date/Time
WST
Temp

°C
Wind Pressure Rain
since 9am
mm
Weather Cloud Vis
km
Sea
Height
m
Swell
Dir
 
Speed
knots
Gust
knots
hPa Trend Height
m
Period
s
Dir
14/11:30pm 28.1 N 3 4 1010.1 - - - - - - - - -
14/11:00pm 28.1 NNE 4 4 1010.3 - - - - - - - - -
14/10:30pm 28.1 CALM 0 0 1010.3 - - - - - - - - -
14/10:00pm 28.0 CALM 0 0 1010.1 - - - - - - - - -
14/09:30pm 28.3 CALM 0 0 1010.0 - - - - - - - - -
14/09:00pm 28.2 CALM 0 0 1009.8 - - - - - - - - -
14/08:30pm 28.4 CALM 0 0 1009.9 - - - - - - - - -
14/08:00pm 28.4 CALM 0 0 1009.7 - - - - - - - - -
14/07:30pm 28.5 CALM 0 0 1009.5 - - - - - - - - -
14/07:00pm 28.6 CALM 0 0 1009.2 - - - - - - - - -
14/06:30pm 28.9 SSE 2 3 1008.6 - - - - - - - - -
14/06:00pm 29.1 S 3 4 1008.1 - - - - - - - - -
14/05:30pm 29.5 S 3 3 1007.9 - - - - - - - - -
14/05:00pm 29.6 SE 3 3 1007.8 - - - - - - - - -
14/04:30pm 29.0 SE 4 5 1008.1 - - - - - - - - -
14/04:00pm 29.8 CALM 0 0 1007.9 - - - - - - - - -
14/03:30pm 29.1 SSW 3 5 1007.9 - - - - - - - - -
14/03:00pm 29.1 SW 5 5 1007.9 - - - - - - - - -
14/02:30pm 29.0 WSW 5 6 1008.2 - - - - - - - - -
14/02:00pm 29.2 W 5 7 1008.1 - - - - - - - - -
14/01:30pm 29.1 WSW 6 8 1008.4 - - - - - - - - -
14/01:00pm 28.9 WSW 6 7 1008.5 - - - - - - - - -
14/12:30pm 28.8 WSW 5 6 1009.0 - - - - - - - - -
14/12:00pm 28.8 SW 8 9 1009.0 - - - - - - - - -
14/11:30am 28.9 WSW 7 8 1009.4 - - - - - - - - -
14/11:00am 29.3 WSW 7 8 1009.7 - - - - - - - - -
14/10:30am 29.0 WSW 8 9 1009.9 - - - - - - - - -
14/10:00am 29.0 WSW 7 8 1010.0 - - - - - - - - -
14/09:30am 29.0 SW 8 9 1010.2 - - - - - - - - -
14/09:00am 28.8 WSW 9 10 1010.1 - - - - - - - - -
14/08:30am 28.6 W 9 11 1010.2 - - - - - - - - -
14/08:00am 28.5 WSW 10 12 1009.9 - - - - - - - - -
14/07:30am 28.4 WSW 9 10 1009.9 - - - - - - - - -
14/07:00am 28.4 W 9 10 1009.6 - - - - - - - - -
14/06:30am 28.3 WSW 10 12 1009.1 - - - - - - - - -
14/06:00am 28.3 W 10 11 1008.7 - - - - - - - - -
14/05:30am 28.3 W 10 11 1008.6 - - - - - - - - -
14/05:00am 28.3 W 9 11 1008.4 - - - - - - - - -
14/04:30am 28.2 W 11 12 1007.8 - - - - - - - - -
14/04:00am 28.2 W 11 13 1007.7 - - - - - - - - -
14/03:30am 28.2 WNW 11 13 1007.6 - - - - - - - - -
14/03:00am 28.1 WNW 9 11 1007.5 - - - - - - - - -
14/02:30am 28.0 NW 8 9 1007.6 - - - - - - - - -
14/02:00am 28.0 WNW 8 9 1007.6 - - - - - - - - -
14/01:30am 28.0 WNW 7 8 1007.8 - - - - - - - - -
14/01:00am 28.0 W 7 8 1007.8 - - - - - - - - -
14/12:30am 28.0 WNW 7 8 1008.3 - - - - - - - - -
14/12:00am 28.1 WNW 7 9 1008.4 - - - - - - - - -
 
Date/Time
WST
Temp

°C
Wind Pressure Rain
since 9am
mm
Weather Cloud Vis
km
Sea
Height
m
Swell
Dir
 
Speed
knots
Gust
knots
hPa Trend Height
m
Period
s
Dir
13/11:30pm 28.2 W 8 8 1009.1 - - - - - - - - -
13/11:00pm 28.1 WNW 9 10 1009.2 - - - - - - - - -
13/10:30pm 28.3 WNW 9 10 1009.5 - - - - - - - - -
13/10:00pm 28.3 NW 9 10 1009.5 - - - - - - - - -
13/09:30pm 28.3 WNW 9 10 1009.6 - - - - - - - - -
13/09:00pm 28.2 WNW 9 10 1009.5 - - - - - - - - -
13/08:30pm 28.5 W 10 11 1009.1 - - - - - - - - -
13/08:00pm 28.5 W 11 12 1008.8 - - - - - - - - -
13/07:30pm 28.6 W 11 13 1008.5 - - - - - - - - -
13/07:00pm 28.7 W 11 14 1008.2 - - - - - - - - -
13/06:30pm 28.7 W 12 15 1007.5 - - - - - - - - -
13/06:00pm 28.9 W 13 15 1007.3 - - - - - - - - -
13/05:30pm 28.9 W 14 16 1007.0 - - - - - - - - -
13/05:00pm 28.9 W 15 17 1006.9 - - - - - - - - -
13/04:30pm 29.0 W 13 15 1007.1 - - - - - - - - -
13/04:00pm 29.0 W 13 15 1007.1 - - - - - - - - -
13/03:30pm 29.0 W 12 14 1007.5 - - - - - - - - -
13/03:00pm 29.0 W 12 13 1007.6 - - - - - - - - -
13/02:30pm 29.1 W 12 14 1008.2 - - - - - - - - -
13/02:00pm 29.1 W 12 13 1008.3 - - - - - - - - -
13/01:30pm 29.2 W 11 14 1008.4 - - - - - - - - -
13/01:00pm 29.0 W 13 15 1008.3 - - - - - - - - -
13/12:30pm 29.0 W 14 16 1008.7 - - - - - - - - -
13/12:00pm 29.0 W 14 15 1008.9 - - - - - - - - -
13/11:30am 29.0 WNW 12 15 1009.5 - - - - - - - - -
13/11:00am 29.0 W 12 14 1009.6 - - - - - - - - -
13/10:30am 29.1 W 12 14 1010.0 - - - - - - - - -
13/10:00am 29.1 W 13 15 1010.2 - - - - - - - - -
13/09:30am 29.0 W 12 15 1010.4 - - - - - - - - -
13/09:00am 28.9 WNW 11 13 1010.6 - - - - - - - - -
13/08:30am 28.8 W 12 14 1010.7 - - - - - - - - -
13/08:00am 28.8 W 12 14 1010.6 - - - - - - - - -
13/07:30am 28.7 WNW 10 12 1010.6 - - - - - - - - -
13/07:00am 28.6 WNW 10 12 1010.1 - - - - - - - - -
13/06:30am 28.6 W 13 15 1009.7 - - - - - - - - -
13/06:00am 28.5 W 14 15 1009.4 - - - - - - - - -
13/05:30am 28.6 WNW 13 16 1008.7 - - - - - - - - -
13/05:00am 28.5 WNW 13 16 1008.4 - - - - - - - - -
13/04:30am 28.4 W 15 17 1008.0 - - - - - - - - -
13/04:00am 28.5 WNW 14 17 1007.9 - - - - - - - - -
13/03:30am 28.6 WNW 13 15 1008.1 - - - - - - - - -
13/03:00am 28.7 WNW 14 17 1007.6 - - - - - - - - -
13/02:30am 28.6 WNW 14 17 1007.6 - - - - - - - - -
13/02:00am 28.5 WNW 13 15 1007.3 - - - - - - - - -
13/01:30am 28.7 NW 15 16 1007.7 - - - - - - - - -
13/01:00am 28.6 NW 14 17 1007.8 - - - - - - - - -
13/12:30am 28.6 NNW 14 16 1008.2 - - - - - - - - -
13/12:00am 28.7 NW 18 21 1008.4 - - - - - - - - -
 
Date/Time
WST
Temp

°C
Wind Pressure Rain
since 9am
mm
Weather Cloud Vis
km
Sea
Height
m
Swell
Dir
 
Speed
knots
Gust
knots
hPa Trend Height
m
Period
s
Dir
12/11:30pm 28.6 WNW 18 20 1007.7 - - - - - - - - -
12/11:00pm 28.6 WNW 18 20 1007.6 - - - - - - - - -
12/10:30pm 28.6 WNW 17 19 1008.3 - - - - - - - - -
12/10:00pm 28.7 WNW 14 16 1008.5 - - - - - - - - -
12/09:30pm 28.6 NW 14 16 1008.7 - - - - - - - - -
12/09:00pm 28.5 WNW 13 14 1008.4 - - - - - - - - -
12/08:30pm 28.7 WNW 13 15 1008.0 - - - - - - - - -
12/08:00pm 28.7 WNW 13 15 1008.0 - - - - - - - - -
12/07:30pm 28.8 WNW 13 15 1007.7 - - - - - - - - -
12/07:00pm 28.8 WNW 13 15 1007.1 - - - - - - - - -
12/06:30pm 29.0 WNW 13 15 1006.9 - - - - - - - - -
12/06:00pm 28.9 WNW 13 14 1006.6 - - - - - - - - -
12/05:30pm 29.1 WNW 13 14 1006.2 - - - - - - - - -
12/05:00pm 29.1 WNW 12 14 1005.9 - - - - - - - - -
12/04:30pm 29.3 WNW 11 13 1005.5 - - - - - - - - -
12/04:00pm 29.1 WNW 11 13 1005.4 - - - - - - - - -
12/03:30pm 29.1 NW 11 13 1005.8 - - - - - - - - -
12/03:00pm 29.2 WNW 12 15 1005.8 - - - - - - - - -
12/02:30pm 29.2 WNW 14 16 1005.6 - - - - - - - - -
12/02:00pm 29.4 WNW 14 15 1005.8 - - - - - - - - -
12/01:30pm 29.2 WNW 11 13 1006.2 - - - - - - - - -
12/01:00pm 29.3 WNW 9 11 1006.5 - - - - - - - - -
12/12:30pm 29.2 NW 9 11 1007.0 - - - - - - - - -
12/12:00pm 29.1 WNW 9 11 1006.9 - - - - - - - - -
12/11:30am 29.1 WNW 10 11 1007.1 - - - - - - - - -
12/11:00am 29.0 WNW 8 9 1007.1 - - - - - - - - -
12/10:30am 28.8 WNW 8 9 1008.0 - - - - - - - - -
12/10:00am 29.1 WNW 7 8 1008.2 - - - - - - - - -
12/09:30am 29.1 NW 5 6 1008.9 - - - - - - - - -
12/09:00am 29.1 WNW 5 6 1008.8 - - - - - - - - -
12/08:30am 28.8 W 5 6 1009.1 - - - - - - - - -
12/08:00am 28.6 SW 7 9 1008.9 - - - - - - - - -
12/07:30am 28.4 SW 8 9 1009.1 - - - - - - - - -
12/07:00am 28.4 WSW 9 11 1008.7 - - - - - - - - -
12/06:30am 28.2 WSW 11 13 1008.4 - - - - - - - - -
12/06:00am 28.3 W 11 13 1008.3 - - - - - - - - -
12/05:30am 28.3 W 13 15 1007.7 - - - - - - - - -
12/05:00am 28.4 WSW 10 12 1007.8 - - - - - - - - -
12/04:30am 28.4 WSW 12 14 1007.5 - - - - - - - - -
12/04:00am 28.4 W 8 10 1007.5 - - - - - - - - -
12/03:30am 28.4 WNW 8 11 1007.1 - - - - - - - - -

Other Formats:

Comma delimited format used in spreadsheet applications
http://www.bom.gov.au/fwo/IDW60701/IDW60701.94207.axf

JavaScript Object Notation format (JSON) in row-major order
http://www.bom.gov.au/fwo/IDW60701/IDW60701.94207.json